NEWFOUND LAKE DAM: From 03/08/2019 19:00 to 03/23/2019 05:00

Date STAGE [FT] FLOW [CFS] LAKE ELEVATION [FT] PRECIPITATION INCREMENT [IN] AIR TEMPERATURE [DEGF]
03/22/2019 22:00 5.14 -- 585.60 0.00 35.8
03/22/2019 21:00 5.14 140.9 585.59 0.00 35.3
03/22/2019 20:00 5.14 140.9 585.59 0.00 35.1
03/22/2019 19:00 5.13 138.9 585.59 0.00 36.2
03/22/2019 18:00 5.14 140.9 585.56 0.00 35.3
03/22/2019 17:00 5.13 138.9 585.57 0.00 35.7
03/22/2019 16:00 5.13 138.9 585.59 0.00 36.2
03/22/2019 15:00 5.14 140.9 585.59 0.01 36.8
03/22/2019 14:00 5.14 140.9 585.59 0.02 37.0
03/22/2019 13:00 5.13 138.9 585.58 0.13 35.4
03/22/2019 12:00 5.14 140.9 585.58 0.06 34.5
03/22/2019 11:00 5.12 136.9 585.58 0.01 32.4
03/22/2019 10:00 5.12 136.9 585.57 0.01 32.9
03/22/2019 09:00 5.11 134.9 585.51 0.01 33.7
03/22/2019 08:00 5.13 138.9 585.59 0.00 33.0
03/22/2019 07:00 5.11 134.9 585.56 0.00 32.1
03/22/2019 06:00 5.11 134.9 585.56 0.00 32.7
03/22/2019 05:00 5.12 136.9 585.57 0.00 34.5
03/22/2019 04:00 5.11 134.9 585.55 0.00 35.0
03/22/2019 03:00 5.11 134.9 585.56 0.00 35.0
03/22/2019 02:00 5.11 134.9 585.55 0.00 35.2
03/22/2019 01:00 5.11 134.9 585.55 0.00 35.7
03/22/2019 00:00 5.12 136.9 585.57 0.00 35.7
03/21/2019 23:00 5.10 133.0 585.54 0.00 36.2
03/21/2019 22:00 5.10 133.0 585.54 0.00 36.8
03/21/2019 21:00 5.10 133.0 585.55 0.00 37.7
03/21/2019 20:00 5.10 133.0 585.56 0.00 37.1
03/21/2019 19:00 5.10 133.0 585.55 0.00 39.5
03/21/2019 18:00 5.11 134.9 585.56 0.00 42.6
03/21/2019 17:00 5.10 133.0 585.56 0.00 44.0
03/21/2019 16:00 5.11 134.9 585.57 0.00 44.8
03/21/2019 15:00 5.10 133.0 585.55 0.00 45.6
03/21/2019 14:00 5.11 134.9 585.57 0.00 46.2
03/21/2019 13:00 5.11 134.9 585.56 0.00 44.5
03/21/2019 12:00 5.11 134.9 585.55 0.00 42.3
03/21/2019 11:00 5.11 134.9 585.57 0.00 40.5
03/21/2019 10:00 5.11 134.9 585.56 0.00 38.6
03/21/2019 09:00 5.12 136.9 585.56 0.00 32.9
03/21/2019 08:00 5.11 134.9 585.56 0.00 27.9
03/21/2019 07:00 5.12 136.9 585.56 0.00 25.9
03/21/2019 06:00 5.12 136.9 585.56 0.00 24.9
03/21/2019 05:00 5.12 136.9 585.57 0.00 24.8
03/21/2019 04:00 5.11 134.9 585.55 0.00 24.5
03/21/2019 03:00 5.11 134.9 585.55 0.00 25.4
03/21/2019 02:00 5.11 134.9 585.57 0.00 26.2
03/21/2019 01:00 5.11 134.9 585.56 0.00 26.0
03/21/2019 00:00 5.11 134.9 585.56 0.00 26.6
03/20/2019 23:00 5.12 136.9 585.57 0.00 27.9
03/20/2019 22:00 5.12 136.9 585.59 0.00 29.3
03/20/2019 21:00 5.13 138.9 585.59 0.00 30.6
03/20/2019 20:00 5.11 134.9 585.57 0.00 32.4
03/20/2019 19:00 5.11 134.9 585.57 0.00 35.9
03/20/2019 18:00 5.11 134.9 585.58 0.00 42.3
03/20/2019 17:00 5.11 134.9 585.58 0.00 48.2
03/20/2019 16:00 5.12 136.9 585.58 0.00 48.5
03/20/2019 15:00 5.11 134.9 585.57 0.00 47.0
03/20/2019 14:00 5.11 134.9 585.58 0.00 44.0
03/20/2019 13:00 5.12 136.9 585.58 0.00 41.2
03/20/2019 12:00 5.12 136.9 585.58 0.00 35.9
03/20/2019 11:00 5.12 136.9 585.57 0.00 28.5
03/20/2019 10:00 5.12 136.9 585.56 0.00 22.4
03/20/2019 09:00 5.12 136.9 585.56 0.00 17.0
03/20/2019 08:00 5.12 136.9 585.56 0.00 13.2
03/20/2019 07:00 5.13 138.9 585.57 0.00 11.4
03/20/2019 06:00 5.12 136.9 585.57 0.00 12.5
03/20/2019 05:00 5.13 138.9 585.58 0.00 13.4
03/20/2019 04:00 5.13 138.9 585.58 0.00 14.3
03/20/2019 03:00 5.13 138.9 585.58 0.00 15.9
03/20/2019 02:00 5.13 138.9 585.58 0.00 17.4
03/20/2019 01:00 5.12 136.9 585.58 0.00 18.4
03/20/2019 00:00 5.12 136.9 585.57 0.00 19.7
03/19/2019 23:00 5.12 136.9 585.58 0.00 21.0
03/19/2019 22:00 5.12 136.9 585.58 0.00 22.6
03/19/2019 21:00 5.13 138.9 585.58 0.00 24.9
03/19/2019 20:00 5.13 138.9 585.59 0.00 26.7
03/19/2019 19:00 5.12 136.9 585.59 0.00 29.4
03/19/2019 18:00 5.13 138.9 585.60 0.00 34.2
03/19/2019 17:00 5.14 140.9 585.60 0.00 35.3
03/19/2019 16:00 5.12 136.9 585.60 0.00 36.5
03/19/2019 15:00 5.12 136.9 585.60 0.00 36.7
03/19/2019 14:00 5.13 138.9 585.59 0.00 35.3
03/19/2019 13:00 5.13 138.9 585.60 0.00 34.3
03/19/2019 12:00 5.13 138.9 585.60 0.00 34.1
03/19/2019 11:00 5.12 136.9 585.60 0.00 31.1
03/19/2019 10:00 5.13 138.9 585.59 0.00 27.9
03/19/2019 09:00 5.14 140.9 585.59 0.00 21.9
03/19/2019 08:00 5.13 138.9 585.59 0.00 17.4
03/19/2019 07:00 5.14 140.9 585.59 0.00 16.6
03/19/2019 06:00 5.13 138.9 585.60 0.00 17.5
03/19/2019 05:00 5.14 140.9 585.60 0.00 18.4
03/19/2019 04:00 5.13 138.9 585.60 0.00 19.3
03/19/2019 03:00 5.13 138.9 585.60 0.00 20.1
03/19/2019 02:00 5.13 138.9 585.59 0.00 20.8
03/19/2019 01:00 5.13 138.9 585.59 0.00 21.1
03/19/2019 00:00 5.14 140.9 585.59 0.00 22.9
03/18/2019 23:00 5.14 140.9 585.60 0.00 23.3
03/18/2019 22:00 5.13 138.9 585.60 0.00 24.0
03/18/2019 21:00 5.13 138.9 585.60 0.00 25.1
03/18/2019 20:00 5.14 140.9 585.61 0.00 27.0
03/18/2019 19:00 5.14 140.9 585.61 0.00 29.9
03/18/2019 18:00 5.13 138.9 585.60 0.00 33.9
03/18/2019 17:00 5.13 138.9 585.61 0.00 34.2
03/18/2019 16:00 5.14 140.9 585.60 0.00 34.9
03/18/2019 15:00 5.13 138.9 585.59 0.00 32.8
03/18/2019 14:00 5.13 138.9 585.61 0.00 33.1
03/18/2019 13:00 5.13 138.9 585.63 0.00 31.7
03/18/2019 12:00 5.14 140.9 585.64 0.00 29.3
03/18/2019 11:00 5.14 140.9 585.59 0.00 27.4
03/18/2019 10:00 4.83 83.9 585.60 0.00 24.6
03/18/2019 09:00 4.83 83.9 585.61 0.00 23.0
03/18/2019 08:00 4.83 83.9 585.61 0.00 15.4
03/18/2019 07:00 4.82 82.3 585.60 0.00 14.2
03/18/2019 06:00 4.84 85.5 585.61 0.00 15.3
03/18/2019 05:00 4.82 82.3 585.60 0.00 17.4
03/18/2019 04:00 4.82 82.3 585.59 0.00 16.9
03/18/2019 03:00 4.82 82.3 585.60 0.00 16.3
03/18/2019 02:00 4.83 83.9 585.61 0.00 18.4
03/18/2019 01:00 4.82 82.3 585.60 0.00 19.7
03/18/2019 00:00 4.83 83.9 585.60 0.00 20.4
03/17/2019 23:00 4.82 82.3 585.60 0.00 22.7
03/17/2019 22:00 4.82 82.3 585.60 0.00 24.9
03/17/2019 21:00 4.82 82.3 585.60 0.00 26.1
03/17/2019 20:00 4.81 80.7 585.60 0.00 27.4
03/17/2019 19:00 4.81 80.7 585.60 0.00 28.5
03/17/2019 18:00 4.81 80.7 585.58 0.00 29.9
03/17/2019 17:00 4.81 80.7 585.61 0.00 30.6
03/17/2019 16:00 4.81 80.7 585.58 0.00 30.8
03/17/2019 15:00 4.81 80.7 585.61 0.00 31.2
03/17/2019 14:00 4.81 80.7 585.61 0.00 30.3
03/17/2019 13:00 4.81 80.7 585.62 0.00 29.8
03/17/2019 12:00 4.81 80.7 585.59 0.00 30.0
03/17/2019 11:00 4.81 80.7 585.59 0.00 26.9
03/17/2019 10:00 4.81 80.7 585.60 0.00 24.6
03/17/2019 09:00 4.80 79.1 585.57 0.00 23.4
03/17/2019 08:00 4.81 80.7 585.58 0.00 23.2
03/17/2019 07:00 4.80 79.1 585.58 0.00 23.3
03/17/2019 06:00 4.81 80.7 585.60 0.00 24.2
03/17/2019 05:00 4.80 79.1 585.58 0.00 24.8
03/17/2019 04:00 4.80 79.1 585.57 0.00 28.3
03/17/2019 03:00 4.80 79.1 585.56 0.00 29.4
03/17/2019 02:00 4.79 77.5 585.57 0.00 29.5
03/17/2019 01:00 4.79 77.5 585.56 0.00 29.3
03/17/2019 00:00 4.78 76.0 585.56 0.00 30.4
03/16/2019 23:00 4.77 74.4 585.56 0.00 30.6
03/16/2019 22:00 4.78 76.0 585.54 0.00 31.2
03/16/2019 21:00 4.77 74.4 585.55 0.00 31.4
03/16/2019 20:00 4.77 74.4 585.55 0.00 31.9
03/16/2019 19:00 4.77 74.4 585.55 0.00 33.9
03/16/2019 18:00 4.76 72.9 585.56 0.00 35.6
03/16/2019 17:00 4.76 72.9 585.56 0.00 38.5
03/16/2019 16:00 4.75 71.4 585.50 0.00 39.7
03/16/2019 15:00 4.76 72.9 585.56 0.00 40.2
03/16/2019 14:00 4.75 71.4 585.51 0.00 40.7
03/16/2019 13:00 4.75 71.4 585.49 0.00 41.1
03/16/2019 12:00 4.74 69.9 585.55 0.00 41.4
03/16/2019 11:00 4.74 69.9 585.48 0.00 40.9
03/16/2019 10:00 4.75 71.4 585.47 0.00 42.0
03/16/2019 09:00 4.75 71.4 585.50 0.00 40.9
03/16/2019 08:00 4.74 69.9 585.53 0.00 40.0
03/16/2019 07:00 4.74 69.9 585.46 0.00 37.0
03/16/2019 06:00 4.73 68.4 585.51 0.00 41.4
03/16/2019 05:00 4.74 69.9 585.51 0.00 41.9
03/16/2019 04:00 4.73 68.4 585.49 0.00 35.9
03/16/2019 03:00 4.74 69.9 585.49 0.00 39.4
03/16/2019 02:00 4.73 68.4 585.47 0.00 37.1
03/16/2019 01:00 4.72 66.9 585.49 0.00 37.8
03/16/2019 00:00 4.72 66.9 585.45 0.00 35.3
03/15/2019 23:00 4.72 66.9 585.49 0.00 35.9
03/15/2019 22:00 4.73 68.4 585.45 0.00 35.3
03/15/2019 21:00 4.73 68.4 585.47 0.00 36.2
03/15/2019 20:00 4.73 68.4 585.46 0.00 38.5
03/15/2019 19:00 4.72 66.9 585.46 0.00 40.9
03/15/2019 18:00 4.71 65.4 585.47 0.00 46.4
03/15/2019 17:00 4.71 65.4 585.45 0.00 49.7
03/15/2019 16:00 4.71 65.4 585.45 0.00 50.6
03/15/2019 15:00 4.71 65.4 585.43 0.00 43.0
03/15/2019 14:00 4.70 64.0 585.40 0.05 43.6
03/15/2019 13:00 4.72 66.9 585.46 0.05 41.5
03/15/2019 12:00 4.72 66.9 585.45 0.02 39.6
03/15/2019 11:00 4.71 65.4 585.42 0.03 39.5
03/15/2019 10:00 4.73 68.4 585.50 0.02 37.1
03/15/2019 09:00 4.74 69.9 585.46 0.05 33.9
03/15/2019 08:00 4.72 66.9 585.44 0.01 33.5
03/15/2019 07:00 4.72 66.9 585.47 0.00 33.0
03/15/2019 06:00 4.71 65.4 585.44 0.00 33.3
03/15/2019 05:00 4.70 64.0 585.42 0.01 33.2
03/15/2019 04:00 4.71 65.4 585.41 0.00 33.1
03/15/2019 03:00 4.71 65.4 585.42 0.00 33.3
03/15/2019 02:00 4.71 65.4 585.44 0.00 33.5
03/15/2019 01:00 4.71 65.4 585.44 0.01 33.3
03/15/2019 00:00 4.71 65.4 585.46 0.00 33.4
03/14/2019 23:00 4.71 65.4 585.44 0.00 32.7
03/14/2019 22:00 4.71 65.4 585.44 0.01 34.0
03/14/2019 21:00 4.71 65.4 585.45 0.00 36.0
03/14/2019 20:00 4.71 65.4 585.43 0.01 36.6
03/14/2019 19:00 4.71 65.4 585.43 0.00 36.9
03/14/2019 18:00 4.71 65.4 585.44 0.03 41.2
03/14/2019 17:00 4.71 65.4 585.44 0.03 42.5
03/14/2019 16:00 4.72 66.9 585.45 0.05 42.0
03/14/2019 15:00 4.72 66.9 585.46 0.05 43.2
03/14/2019 14:00 4.72 66.9 585.45 0.06 42.6
03/14/2019 13:00 4.71 65.4 585.44 0.06 39.6
03/14/2019 12:00 4.71 65.4 585.44 0.05 36.9
03/14/2019 11:00 4.71 65.4 585.44 0.02 36.8
03/14/2019 10:00 4.71 65.4 585.43 0.01 34.8
03/14/2019 09:00 4.71 65.4 585.43 0.01 32.9
03/14/2019 08:00 4.71 65.4 585.45 0.00 31.5
03/14/2019 07:00 4.71 65.4 585.44 0.00 31.1
03/14/2019 06:00 4.71 65.4 585.43 0.00 31.1
03/14/2019 05:00 4.72 66.9 585.44 0.00 30.8
03/14/2019 04:00 4.72 66.9 585.44 0.00 30.6
03/14/2019 03:00 4.71 65.4 585.44 0.00 31.0
03/14/2019 02:00 4.72 66.9 585.44 0.00 31.2
03/14/2019 01:00 4.71 65.4 585.43 0.00 31.3
03/14/2019 00:00 4.71 65.4 585.43 0.00 31.6
03/13/2019 23:00 4.71 65.4 585.44 0.00 31.9
03/13/2019 22:00 4.71 65.4 585.45 0.01 32.5
03/13/2019 21:00 4.72 66.9 585.44 0.00 35.8
03/13/2019 20:00 4.72 66.9 585.46 0.00 33.5
03/13/2019 19:00 4.72 66.9 585.48 0.00 34.3
03/13/2019 18:00 4.71 65.4 585.45 0.01 35.8
03/13/2019 17:00 4.71 65.4 585.45 0.01 36.9
03/13/2019 16:00 4.70 64.0 585.44 0.03 39.9
03/13/2019 15:00 4.71 65.4 585.45 0.04 41.3
03/13/2019 14:00 4.72 66.9 585.45 0.02 40.5
03/13/2019 13:00 4.72 66.9 585.45 0.01 38.9
03/13/2019 12:00 4.72 66.9 585.45 0.00 38.0
03/13/2019 11:00 4.71 65.4 585.44 0.00 36.1
03/13/2019 10:00 4.72 66.9 585.43 0.00 24.9
03/13/2019 09:00 4.72 66.9 585.44 0.00 22.0
03/13/2019 08:00 4.72 66.9 585.43 0.00 17.2
03/13/2019 07:00 4.72 66.9 585.45 0.00 15.5
03/13/2019 06:00 4.72 66.9 585.45 0.00 17.1
03/13/2019 05:00 4.72 66.9 585.44 0.00 18.6
03/13/2019 04:00 4.72 66.9 585.43 0.00 19.4
03/13/2019 03:00 4.72 66.9 585.43 0.00 21.0
03/13/2019 02:00 4.72 66.9 585.44 0.00 22.1
03/13/2019 01:00 4.72 66.9 585.43 0.00 23.1
03/13/2019 00:00 4.72 66.9 585.44 0.00 24.7
03/12/2019 23:00 4.71 65.4 585.44 0.00 25.3
03/12/2019 22:00 4.71 65.4 585.43 0.00 26.7
03/12/2019 21:00 4.72 66.9 585.45 0.00 29.6
03/12/2019 20:00 4.71 65.4 585.43 0.00 29.8
03/12/2019 19:00 4.72 66.9 585.44 0.00 31.4
03/12/2019 18:00 4.71 65.4 585.44 0.00 33.6
03/12/2019 17:00 4.71 65.4 585.44 0.00 35.1
03/12/2019 16:00 4.71 65.4 585.46 0.00 35.6
03/12/2019 15:00 4.71 65.4 585.44 0.00 35.4
03/12/2019 14:00 4.71 65.4 585.44 0.00 34.1
03/12/2019 13:00 4.71 65.4 585.46 0.00 33.0
03/12/2019 12:00 4.70 64.0 585.41 0.00 32.3
03/12/2019 11:00 4.71 65.4 585.44 0.00 30.7
03/12/2019 10:00 4.71 65.4 585.44 0.00 29.6
03/12/2019 09:00 4.71 65.4 585.44 0.00 28.3
03/12/2019 08:00 4.72 66.9 585.42 0.00 27.5
03/12/2019 07:00 4.71 65.4 585.44 0.00 27.3
03/12/2019 06:00 4.71 65.4 585.44 0.00 27.8
03/12/2019 05:00 4.72 66.9 585.48 0.00 27.9
03/12/2019 04:00 4.72 66.9 585.43 0.00 28.9
03/12/2019 03:00 4.71 65.4 585.48 0.00 30.8
03/12/2019 02:00 4.72 66.9 585.41 0.00 31.8
03/12/2019 01:00 4.71 65.4 585.48 0.00 31.7
03/12/2019 00:00 4.72 66.9 585.45 0.00 32.3
03/11/2019 23:00 4.72 66.9 585.43 0.01 32.5
03/11/2019 22:00 4.72 66.9 585.51 0.00 32.5
03/11/2019 21:00 4.71 65.4 585.44 0.00 33.9
03/11/2019 20:00 4.71 65.4 585.42 0.00 35.1
03/11/2019 19:00 4.71 65.4 585.45 0.00 36.4
03/11/2019 18:00 4.71 65.4 585.45 0.02 37.3
03/11/2019 17:00 4.71 65.4 585.50 0.03 38.0
03/11/2019 16:00 4.71 65.4 585.49 0.04 39.2
03/11/2019 15:00 4.71 65.4 585.45 0.05 40.2
03/11/2019 14:00 4.72 66.9 585.45 0.05 40.3
03/11/2019 13:00 4.72 66.9 585.41 0.02 40.1
03/11/2019 12:00 4.71 65.4 585.41 0.02 38.3
03/11/2019 11:00 4.72 66.9 585.44 0.00 34.8
03/11/2019 10:00 4.72 66.9 585.47 0.00 32.2
03/11/2019 09:00 4.72 66.9 585.44 0.00 31.5
03/11/2019 08:00 4.71 65.4 585.44 0.00 30.9
03/11/2019 07:00 4.72 66.9 585.44 0.00 30.8
03/11/2019 06:00 4.72 66.9 585.44 0.00 30.6
03/11/2019 05:00 4.72 66.9 585.44 0.00 30.1
03/11/2019 04:00 4.72 66.9 585.46 0.00 29.7
03/11/2019 03:00 4.72 66.9 585.46 0.00 29.4
03/11/2019 02:00 4.72 66.9 585.45 0.00 29.3
03/11/2019 01:00 4.72 66.9 585.45 0.00 29.2
03/11/2019 00:00 4.72 66.9 585.47 0.00 29.8
03/10/2019 23:00 4.72 66.9 585.46 0.00 30.1
03/10/2019 22:00 4.73 68.4 585.46 0.00 30.4
03/10/2019 21:00 4.73 68.4 585.46 0.00 29.9
03/10/2019 20:00 4.73 68.4 585.49 0.00 29.8
03/10/2019 19:00 4.72 66.9 585.47 0.00 29.5
03/10/2019 18:00 4.73 68.4 585.47 0.00 29.4
03/10/2019 17:00 4.74 69.9 585.46 0.00 29.2
03/10/2019 16:00 4.73 68.4 585.46 0.00 28.2
03/10/2019 15:00 4.73 68.4 585.47 0.00 27.4
03/10/2019 14:00 4.73 68.4 585.47 0.00 26.6
03/10/2019 13:00 4.73 68.4 585.47 0.00 25.6
03/10/2019 12:00 4.72 66.9 585.45 0.00 24.5
03/10/2019 11:00 4.72 66.9 585.45 0.00 23.4
03/10/2019 10:00 4.71 65.4 585.43 0.00 22.4
03/10/2019 09:00 4.71 65.4 585.44 0.00 22.1
03/10/2019 08:00 4.71 65.4 585.42 0.00 24.3
03/10/2019 07:00 4.71 65.4 585.43 0.00 23.7
03/10/2019 06:00 4.70 64.0 585.44 0.00 23.8
03/10/2019 05:00 4.71 65.4 585.43 0.00 24.1
03/10/2019 04:00 4.71 65.4 585.43 0.00 24.4
03/10/2019 03:00 4.71 65.4 585.45 0.00 24.6
03/10/2019 02:00 4.72 66.9 585.44 0.00 25.6
03/10/2019 01:00 4.72 66.9 585.44 0.00 25.6
03/10/2019 00:00 4.71 65.4 585.43 0.00 26.6
03/09/2019 23:00 4.71 65.4 585.44 0.00 26.8
03/09/2019 22:00 4.71 65.4 585.43 0.00 23.6
03/09/2019 21:00 4.71 65.4 585.41 0.00 21.5
03/09/2019 20:00 4.70 64.0 585.41 0.00 20.3
03/09/2019 19:00 4.71 65.4 585.42 0.00 25.8
03/09/2019 18:00 4.71 65.4 585.43 0.00 28.9
03/09/2019 17:00 4.71 65.4 585.43 0.00 35.0
03/09/2019 16:00 4.71 65.4 585.44 0.00 37.7
03/09/2019 15:00 4.71 65.4 585.44 0.00 38.0
03/09/2019 14:00 4.71 65.4 585.46 0.00 37.1
03/09/2019 13:00 4.71 65.4 585.43 0.00 35.5
03/09/2019 12:00 4.71 65.4 585.44 0.00 35.2
03/09/2019 11:00 4.71 65.4 585.45 0.00 33.4
03/09/2019 10:00 4.71 65.4 585.44 0.00 30.4
03/09/2019 09:00 4.72 66.9 585.44 0.00 26.1
03/09/2019 08:00 4.71 65.4 585.43 0.00 6.6
03/09/2019 07:00 4.72 66.9 585.44 0.00 3.0
03/09/2019 06:00 4.71 65.4 585.40 0.00 2.3
03/09/2019 05:00 4.71 65.4 585.44 0.00 3.4
03/09/2019 04:00 4.72 66.9 585.44 0.00 6.1
03/09/2019 03:00 4.72 66.9 585.43 0.00 9.4
03/09/2019 02:00 4.72 66.9 585.45 0.00 8.8
03/09/2019 01:00 4.72 66.9 585.46 0.00 12.0
03/09/2019 00:00 4.72 66.9 585.43 0.00 12.8
03/08/2019 23:00 -- -- -- -- --
03/08/2019 22:00 -- -- -- -- --
03/08/2019 21:00 -- -- -- -- --
03/08/2019 20:00 -- -- -- -- --
03/08/2019 19:00 -- -- -- -- --